createdAt,value
2019-05-07T00:00:03.386Z,63.2
2019-05-07T00:00:49.306Z,63.3
2019-05-07T00:01:42.852Z,63.1
2019-05-07T00:02:32.170Z,63.4
2019-05-07T00:03:21.933Z,63.2
2019-05-07T00:04:07.354Z,63.3
2019-05-07T00:04:55.486Z,63.1
2019-05-07T00:05:49.030Z,63.1
2019-05-07T00:06:37.234Z,63.1
2019-05-07T00:07:26.066Z,63.0
2019-05-07T00:08:14.619Z,63.2
2019-05-07T00:09:03.192Z,63.3
2019-05-07T00:09:55.244Z,63.4
2019-05-07T00:10:44.335Z,63.4
2019-05-07T00:11:33.080Z,63.4
2019-05-07T00:11:53.165Z,63.4
2019-05-07T00:12:12.601Z,63.5
2019-05-07T00:13:02.109Z,63.5
2019-05-07T00:13:53.425Z,63.5
2019-05-07T00:14:43.003Z,63.6
2019-05-07T00:15:32.556Z,63.5
2019-05-07T00:16:17.877Z,63.7
2019-05-07T00:17:06.046Z,63.9
2019-05-07T00:17:59.612Z,64.0
2019-05-07T00:18:47.748Z,64.0
2019-05-07T00:19:36.495Z,64.0
2019-05-07T00:20:24.083Z,64.2
2019-05-07T00:21:12.664Z,64.2
2019-05-07T00:22:05.768Z,64.4
2019-05-07T00:22:53.930Z,64.7
2019-05-07T00:23:43.392Z,64.8
2019-05-07T00:24:30.254Z,64.8
2019-05-07T00:25:18.434Z,64.9
2019-05-07T00:26:13.245Z,65.0
2019-05-07T00:27:02.612Z,65.2
2019-05-07T00:27:48.856Z,65.4
2019-05-07T00:28:36.463Z,65.4
2019-05-07T00:29:24.577Z,65.5
2019-05-07T00:30:18.119Z,65.3
2019-05-07T00:31:06.277Z,65.5
2019-05-07T00:31:55.007Z,65.7
2019-05-07T00:32:42.611Z,65.7
2019-05-07T00:33:32.326Z,66.0
2019-05-07T00:34:24.291Z,66.1
2019-05-07T00:35:13.083Z,66.2
2019-05-07T00:35:53.008Z,66.2
2019-05-07T00:36:41.955Z,66.3
2019-05-07T00:37:27.860Z,66.4
2019-05-07T00:38:22.434Z,66.4
2019-05-07T00:39:09.531Z,66.4
2019-05-07T00:39:58.287Z,66.5
2019-05-07T00:40:45.840Z,66.6
2019-05-07T00:41:33.999Z,66.7
2019-05-07T00:42:27.543Z,66.6
2019-05-07T00:43:15.679Z,66.8
2019-05-07T00:44:04.413Z,67.0
2019-05-07T00:44:53.024Z,67.0
2019-05-07T00:45:42.141Z,67.0
2019-05-07T00:46:33.686Z,66.8
2019-05-07T00:47:22.291Z,66.8
2019-05-07T00:48:12.521Z,66.8
2019-05-07T00:48:58.181Z,67.0
2019-05-07T00:49:46.337Z,67.3
2019-05-07T00:50:41.947Z,67.2
2019-05-07T00:51:28.004Z,67.2
2019-05-07T00:52:16.773Z,67.4
2019-05-07T00:53:04.335Z,67.6
2019-05-07T00:53:52.463Z,67.6
2019-05-07T00:54:46.015Z,67.8
2019-05-07T00:55:34.153Z,67.9
2019-05-07T00:56:22.833Z,68.1
2019-05-07T00:57:12.455Z,68.0
2019-05-07T00:57:58.602Z,68.1
2019-05-07T00:58:52.866Z,68.3
2019-05-07T00:59:40.271Z,68.5
2019-05-07T01:00:28.980Z,68.6
2019-05-07T01:01:16.586Z,68.8
2019-05-07T01:02:04.723Z,68.7
2019-05-07T01:02:58.268Z,68.8
2019-05-07T01:03:46.436Z,69.1
2019-05-07T01:04:35.168Z,69.3
2019-05-07T01:05:23.164Z,69.3
2019-05-07T01:06:12.809Z,69.6
2019-05-07T01:07:04.406Z,69.8
2019-05-07T01:07:53.003Z,70.4
2019-05-07T01:08:43.002Z,70.5
2019-05-07T01:09:28.856Z,71.0
2019-05-07T01:10:16.998Z,71.4
2019-05-07T01:11:10.566Z,71.6
2019-05-07T01:11:58.687Z,71.9
2019-05-07T01:12:47.405Z,72.0
2019-05-07T01:13:34.972Z,72.3
2019-05-07T01:14:23.126Z,72.4
2019-05-07T01:15:27.964Z,72.3
2019-05-07T01:16:04.795Z,72.4
2019-05-07T01:16:53.531Z,72.3
2019-05-07T01:17:42.544Z,72.2
2019-05-07T01:18:29.239Z,72.1
2019-05-07T01:19:22.760Z,72.2
2019-05-07T01:20:12.538Z,72.3
2019-05-07T01:21:02.287Z,72.5
2019-05-07T01:21:45.850Z,72.5
2019-05-07T01:21:47.191Z,72.6
2019-05-07T01:22:35.338Z,72.8
2019-05-07T01:23:28.900Z,72.7
2019-05-07T01:24:17.015Z,72.4
2019-05-07T01:25:05.690Z,72.4
2019-05-07T01:25:53.308Z,72.5
2019-05-07T01:26:42.605Z,72.6
2019-05-07T01:27:34.989Z,72.7
2019-05-07T01:28:23.118Z,72.8
2019-05-07T01:29:12.797Z,72.9
2019-05-07T01:29:59.409Z,72.8
2019-05-07T01:30:47.618Z,72.8
2019-05-07T01:31:42.986Z,72.9
2019-05-07T01:32:29.221Z,72.9
2019-05-07T01:33:17.905Z,72.9
2019-05-07T01:34:05.516Z,73.0
2019-05-07T01:34:53.680Z,72.9
2019-05-07T01:35:47.195Z,72.9
2019-05-07T01:36:35.347Z,73.0
2019-05-07T01:37:24.049Z,73.0
2019-05-07T01:38:12.330Z,73.0
2019-05-07T01:38:59.775Z,73.0
2019-05-07T01:39:52.924Z,73.0
2019-05-07T01:39:53.497Z,73.1
2019-05-07T01:40:42.789Z,73.1
2019-05-07T01:41:30.132Z,73.2
2019-05-07T01:42:17.715Z,73.2
2019-05-07T01:43:05.833Z,73.1
2019-05-07T01:43:59.363Z,73.3
2019-05-07T01:44:47.497Z,73.3
2019-05-07T01:45:46.430Z,73.1
2019-05-07T01:46:24.809Z,73.1
2019-05-07T01:47:13.024Z,72.9
2019-05-07T01:48:05.451Z,72.9
2019-05-07T01:48:57.142Z,73.1
2019-05-07T01:49:42.427Z,72.9
2019-05-07T01:50:32.108Z,72.5
2019-05-07T01:51:18.010Z,72.0
2019-05-07T01:52:13.373Z,72.2
2019-05-07T01:52:59.692Z,72.1
2019-05-07T01:53:48.422Z,72.1
2019-05-07T01:54:35.953Z,72.1
2019-05-07T01:55:24.087Z,72.0
2019-05-07T01:56:17.642Z,72.2
2019-05-07T01:57:05.761Z,72.3
2019-05-07T01:57:54.468Z,72.1
2019-05-07T01:58:42.591Z,71.9
2019-05-07T01:59:32.145Z,72.1
2019-05-07T02:00:23.711Z,72.2
2019-05-07T02:01:13.126Z,71.9
2019-05-07T02:02:02.868Z,71.9
2019-05-07T02:02:48.131Z,71.7
2019-05-07T02:03:36.303Z,71.0
2019-05-07T02:04:29.814Z,70.9
2019-05-07T02:05:17.945Z,71.0
2019-05-07T02:06:06.681Z,71.2
2019-05-07T02:06:54.223Z,71.5
2019-05-07T02:07:42.947Z,72.1
2019-05-07T02:08:35.926Z,72.1
2019-05-07T02:09:24.021Z,71.7
2019-05-07T02:10:12.703Z,71.6
2019-05-07T02:11:02.096Z,71.2
2019-05-07T02:11:48.448Z,71.3
2019-05-07T02:12:42.565Z,71.6
2019-05-07T02:13:30.119Z,71.9
2019-05-07T02:14:18.772Z,72.2
2019-05-07T02:15:06.379Z,72.1
2019-05-07T02:16:00.996Z,71.9
2019-05-07T02:16:48.048Z,71.7
2019-05-07T02:17:36.198Z,71.6
2019-05-07T02:18:24.906Z,71.7
2019-05-07T02:19:12.751Z,71.8
2019-05-07T02:20:02.701Z,71.8
2019-05-07T02:20:54.128Z,71.8
2019-05-07T02:21:42.492Z,72.0
2019-05-07T02:22:32.043Z,72.3
2019-05-07T02:23:18.532Z,72.3
2019-05-07T02:24:06.675Z,72.5
2019-05-07T02:25:00.213Z,72.7
2019-05-07T02:25:48.354Z,73.0
2019-05-07T02:26:37.013Z,72.9
2019-05-07T02:27:24.603Z,72.7
2019-05-07T02:28:12.942Z,72.5
2019-05-07T02:29:06.290Z,72.5
2019-05-07T02:29:54.413Z,72.7
2019-05-07T02:30:44.458Z,72.7
2019-05-07T02:31:33.690Z,72.8
2019-05-07T02:32:18.817Z,72.8
2019-05-07T02:33:13.818Z,72.8
2019-05-07T02:34:02.721Z,72.8
2019-05-07T02:34:49.456Z,72.7
2019-05-07T02:35:36.762Z,72.6
2019-05-07T02:36:24.931Z,72.5
2019-05-07T02:37:18.420Z,72.4
2019-05-07T02:38:06.549Z,72.3
2019-05-07T02:38:55.286Z,72.5
2019-05-07T02:39:44.344Z,72.8
2019-05-07T02:40:33.637Z,72.9
2019-05-07T02:41:24.527Z,73.0
2019-05-07T02:42:13.198Z,73.2
2019-05-07T02:43:03.079Z,73.0
2019-05-07T02:43:48.903Z,72.9
2019-05-07T02:44:37.048Z,72.8
2019-05-07T02:45:33.230Z,72.8
2019-05-07T02:46:29.363Z,72.6
2019-05-07T02:47:07.404Z,72.4
2019-05-07T02:47:54.984Z,72.8
2019-05-07T02:48:43.119Z,73.0
2019-05-07T02:49:36.637Z,72.5
2019-05-07T02:50:24.794Z,72.1
2019-05-07T02:50:32.975Z,72.1
2019-05-07T02:51:13.248Z,72.1
2019-05-07T02:51:58.111Z,71.9
2019-05-07T02:52:46.213Z,71.9
2019-05-07T02:53:42.897Z,71.8
2019-05-07T02:54:27.911Z,71.8
2019-05-07T02:55:16.598Z,72.0
2019-05-07T02:56:04.165Z,72.2
2019-05-07T02:56:53.301Z,72.4
2019-05-07T02:57:45.804Z,72.6
2019-05-07T02:58:33.977Z,73.1
2019-05-07T02:59:23.557Z,72.9
2019-05-07T03:00:10.239Z,73.1
2019-05-07T03:00:58.387Z,73.1
2019-05-07T03:01:53.774Z,73.1
2019-05-07T03:02:40.019Z,73.3
2019-05-07T03:03:28.680Z,73.3
2019-05-07T03:04:16.290Z,73.2
2019-05-07T03:05:05.381Z,73.2
2019-05-07T03:05:57.952Z,73.0
2019-05-07T03:06:46.093Z,73.3
2019-05-07T03:07:34.769Z,73.2
2019-05-07T03:08:27.043Z,73.4
2019-05-07T03:09:14.104Z,73.2
2019-05-07T03:09:23.396Z,73.2
2019-05-07T03:09:58.223Z,73.1
2019-05-07T03:10:46.374Z,73.1
2019-05-07T03:11:35.029Z,73.1
2019-05-07T03:12:23.700Z,73.1
2019-05-07T03:13:13.451Z,73.1
2019-05-07T03:14:04.298Z,73.1
2019-05-07T03:14:53.616Z,73.3
2019-05-07T03:15:43.554Z,73.2
2019-05-07T03:16:39.732Z,73.2
2019-05-07T03:17:16.812Z,73.3
2019-05-07T03:18:13.479Z,73.3
2019-05-07T03:18:58.461Z,73.3
2019-05-07T03:19:47.207Z,73.5
2019-05-07T03:20:34.730Z,73.6
2019-05-07T03:21:23.680Z,73.7
2019-05-07T03:22:16.404Z,73.9
2019-05-07T03:23:04.558Z,74.0
2019-05-07T03:23:53.868Z,73.9
2019-05-07T03:24:43.475Z,73.7
2019-05-07T03:25:28.923Z,73.9
2019-05-07T03:26:23.129Z,73.6
2019-05-07T03:27:13.824Z,73.6
2019-05-07T03:27:59.517Z,73.6
2019-05-07T03:28:46.928Z,73.5
2019-05-07T03:29:34.982Z,73.5
2019-05-07T03:30:28.524Z,73.4
2019-05-07T03:31:17.350Z,73.4
2019-05-07T03:32:06.394Z,73.7
2019-05-07T03:32:56.164Z,73.8
2019-05-07T03:33:46.387Z,73.9
2019-05-07T03:34:36.915Z,73.9
2019-05-07T03:35:27.407Z,73.8
2019-05-07T03:36:16.796Z,74.0
2019-05-07T03:36:58.957Z,74.1
2019-05-07T03:37:47.123Z,74.3
2019-05-07T03:38:43.727Z,74.2
2019-05-07T03:39:28.776Z,74.3
2019-05-07T03:40:17.491Z,74.5
2019-05-07T03:41:05.024Z,74.6
2019-05-07T03:41:53.306Z,74.4
2019-05-07T03:42:46.688Z,74.2
2019-05-07T03:43:34.799Z,74.2
2019-05-07T03:44:24.064Z,74.3
2019-05-07T03:45:13.766Z,73.8
2019-05-07T03:45:59.203Z,73.9
2019-05-07T03:47:01.416Z,74.0
2019-05-07T03:47:43.540Z,74.1
2019-05-07T03:48:29.602Z,73.9
2019-05-07T03:49:17.126Z,73.9
2019-05-07T03:50:05.289Z,73.8
2019-05-07T03:50:58.779Z,73.7
2019-05-07T03:51:46.936Z,73.5
2019-05-07T03:52:35.646Z,73.8
2019-05-07T03:53:23.568Z,73.8
2019-05-07T03:54:14.403Z,73.9
2019-05-07T03:55:04.828Z,73.8
2019-05-07T03:55:53.995Z,73.5
2019-05-07T03:56:43.580Z,73.2
2019-05-07T03:57:29.245Z,73.2
2019-05-07T03:58:17.365Z,72.9
2019-05-07T03:59:13.002Z,72.8
2019-05-07T03:59:59.031Z,72.8
2019-05-07T04:00:47.959Z,73.0
2019-05-07T04:01:35.292Z,72.9
2019-05-07T04:02:24.158Z,72.6
2019-05-07T04:03:19.785Z,72.4
2019-05-07T04:04:05.100Z,72.3
2019-05-07T04:04:53.860Z,72.5
2019-05-07T04:05:43.282Z,72.7
2019-05-07T04:06:29.548Z,72.9
2019-05-07T04:07:23.489Z,73.0
2019-05-07T04:08:13.134Z,73.0
2019-05-07T04:08:59.931Z,73.2
2019-05-07T04:09:47.469Z,73.3
2019-05-07T04:10:35.578Z,73.3
2019-05-07T04:11:29.087Z,73.5
2019-05-07T04:12:17.233Z,73.4
2019-05-07T04:13:05.903Z,73.5
2019-05-07T04:13:53.750Z,73.5
2019-05-07T04:14:43.288Z,73.6
2019-05-07T04:15:35.147Z,73.6
2019-05-07T04:16:24.159Z,73.9
2019-05-07T04:17:17.273Z,74.2
2019-05-07T04:17:59.552Z,74.3
2019-05-07T04:18:47.722Z,74.5
2019-05-07T04:19:44.153Z,74.3
2019-05-07T04:20:29.337Z,74.4
2019-05-07T04:21:18.044Z,74.5
2019-05-07T04:22:05.660Z,74.6
2019-05-07T04:22:53.905Z,74.4
2019-05-07T04:23:47.282Z,74.5
2019-05-07T04:24:35.406Z,74.5
2019-05-07T04:25:24.375Z,74.6
2019-05-07T04:26:13.353Z,74.7
2019-05-07T04:26:59.816Z,74.8
2019-05-07T04:27:53.328Z,74.8
2019-05-07T04:28:43.643Z,74.9
2019-05-07T04:29:30.132Z,75.1
2019-05-07T04:30:17.721Z,75.2
2019-05-07T04:31:05.894Z,75.4
2019-05-07T04:31:59.368Z,75.2
2019-05-07T04:32:47.510Z,75.3
2019-05-07T04:33:36.305Z,75.2
2019-05-07T04:34:24.006Z,75.0
2019-05-07T04:35:12.576Z,75.1
2019-05-07T04:36:05.417Z,75.1
2019-05-07T04:36:53.703Z,75.0
2019-05-07T04:37:42.847Z,74.6
2019-05-07T04:38:29.858Z,74.4
2019-05-07T04:39:17.967Z,74.2
2019-05-07T04:40:13.427Z,74.3
2019-05-07T04:40:59.621Z,74.2
2019-05-07T04:41:48.309Z,73.9
2019-05-07T04:42:35.891Z,73.9
2019-05-07T04:42:39.135Z,73.9
2019-05-07T04:43:17.675Z,73.9
2019-05-07T04:44:13.744Z,74.0
2019-05-07T04:44:59.323Z,74.0
2019-05-07T04:45:48.054Z,74.1
2019-05-07T04:46:35.593Z,74.0
2019-05-07T04:47:34.490Z,74.4
2019-05-07T04:48:17.254Z,74.3
2019-05-07T04:49:05.409Z,74.5
2019-05-07T04:49:54.081Z,74.6
2019-05-07T04:50:44.309Z,74.7
2019-05-07T04:51:29.792Z,74.4
2019-05-07T04:52:23.942Z,74.3
2019-05-07T04:53:13.872Z,73.8
2019-05-07T04:54:03.306Z,73.4
2019-05-07T04:54:47.724Z,73.2
2019-05-07T04:55:35.901Z,73.3
2019-05-07T04:56:29.383Z,73.3
2019-05-07T04:57:17.518Z,73.2
2019-05-07T04:58:09.142Z,73.1
2019-05-07T04:58:53.804Z,73.1
2019-05-07T04:59:42.896Z,73.1
2019-05-07T05:00:35.469Z,73.3
2019-05-07T05:01:23.782Z,73.4
2019-05-07T05:02:13.461Z,73.7
2019-05-07T05:02:59.873Z,73.5
2019-05-07T05:03:48.001Z,73.3
2019-05-07T05:04:43.916Z,73.2
2019-05-07T05:05:32.725Z,72.9
2019-05-07T05:07:06.551Z,72.7
2019-05-07T05:07:54.100Z,72.8
2019-05-07T05:08:47.644Z,72.7
2019-05-07T05:09:35.761Z,72.7
2019-05-07T05:10:23.906Z,72.9
2019-05-07T05:11:12.931Z,73.0
2019-05-07T05:12:02.586Z,73.0
2019-05-07T05:12:53.920Z,73.1
2019-05-07T05:13:44.336Z,72.9
2019-05-07T05:14:29.995Z,72.9
2019-05-07T05:15:18.657Z,72.7
2019-05-07T05:16:06.268Z,72.7
2019-05-07T05:17:01.949Z,73.6
2019-05-07T05:17:50.902Z,74.3
2019-05-07T05:18:36.071Z,73.9
2019-05-07T05:19:24.774Z,74.0
2019-05-07T05:20:13.097Z,74.1
2019-05-07T05:21:05.886Z,73.7
2019-05-07T05:21:54.019Z,73.8
2019-05-07T05:22:42.597Z,73.9
2019-05-07T05:23:32.308Z,73.7
2019-05-07T05:24:18.444Z,73.8
2019-05-07T05:25:12.260Z,74.1
2019-05-07T05:26:01.946Z,73.8
2019-05-07T05:26:48.262Z,73.9
2019-05-07T05:27:34.886Z,73.9
2019-05-07T05:27:36.895Z,73.8
2019-05-07T05:28:24.561Z,73.3
2019-05-07T05:29:18.081Z,73.4
2019-05-07T05:30:06.231Z,73.4
2019-05-07T05:30:54.380Z,73.9
2019-05-07T05:31:43.102Z,73.5
2019-05-07T05:32:32.485Z,73.4
2019-05-07T05:33:24.174Z,73.3
2019-05-07T05:34:13.032Z,73.3
2019-05-07T05:35:00.678Z,73.4
2019-05-07T05:35:49.207Z,73.4
2019-05-07T05:36:36.811Z,73.4
2019-05-07T05:37:32.148Z,73.1
2019-05-07T05:38:18.437Z,72.9
2019-05-07T05:39:06.556Z,72.9
2019-05-07T05:40:05.591Z,72.9
2019-05-07T05:40:43.011Z,73.0
2019-05-07T05:42:24.578Z,72.6
2019-05-07T05:43:12.800Z,72.5
2019-05-07T05:44:02.395Z,72.3
2019-05-07T05:44:50.002Z,72.1
2019-05-07T05:45:42.771Z,71.8
2019-05-07T05:46:31.931Z,71.5
2019-05-07T05:47:22.063Z,71.4
2019-05-07T05:48:08.526Z,71.2
2019-05-07T05:48:55.764Z,71.1
2019-05-07T05:49:48.694Z,71.0
2019-05-07T05:50:36.829Z,70.9
2019-05-07T05:51:24.977Z,70.5
2019-05-07T05:52:13.138Z,70.3
2019-05-07T05:53:02.788Z,70.4
2019-05-07T05:53:54.817Z,70.2
2019-05-07T05:54:42.973Z,70.1
2019-05-07T05:55:32.178Z,69.9
2019-05-07T05:56:19.261Z,69.7
2019-05-07T05:57:07.949Z,69.4
2019-05-07T05:58:02.686Z,69.3
2019-05-07T05:58:49.094Z,69.0
2019-05-07T05:59:47.974Z,68.8
2019-05-07T06:00:25.401Z,68.7
2019-05-07T06:01:14.188Z,69.0
2019-05-07T06:02:07.081Z,68.9
2019-05-07T06:02:55.242Z,68.8
2019-05-07T06:03:43.383Z,68.7
2019-05-07T06:04:32.866Z,68.5
2019-05-07T06:05:22.120Z,68.3
2019-05-07T06:06:13.201Z,68.3
2019-05-07T06:07:11.227Z,68.2
2019-05-07T06:07:49.547Z,68.3
2019-05-07T06:08:26.252Z,68.3
2019-05-07T06:08:37.282Z,68.3
2019-05-07T06:09:25.985Z,68.3
2019-05-07T06:10:18.960Z,68.2
2019-05-07T06:11:07.127Z,68.2
2019-05-07T06:11:55.287Z,68.0
2019-05-07T06:12:43.447Z,67.9
2019-05-07T06:13:32.410Z,67.6
2019-05-07T06:14:25.150Z,67.3
2019-05-07T06:15:13.299Z,67.0
2019-05-07T06:16:03.092Z,66.7
2019-05-07T06:16:49.628Z,66.6
2019-05-07T06:17:38.363Z,66.5
2019-05-07T06:18:32.692Z,66.6
2019-05-07T06:19:19.477Z,66.3
2019-05-07T06:20:07.654Z,66.4
2019-05-07T06:20:55.823Z,66.4
2019-05-07T06:21:44.511Z,65.8
2019-05-07T06:22:37.508Z,65.7
2019-05-07T06:23:25.676Z,66.0
2019-05-07T06:24:13.835Z,66.0
2019-05-07T06:25:02.481Z,65.9
2019-05-07T06:25:52.347Z,65.9
2019-05-07T06:26:43.706Z,66.0
2019-05-07T06:27:32.506Z,66.0
2019-05-07T06:28:22.170Z,65.9
2019-05-07T06:29:08.201Z,65.9
2019-05-07T06:29:57.418Z,65.7
2019-05-07T06:30:49.953Z,65.6
2019-05-07T06:31:38.063Z,65.4
2019-05-07T06:32:26.226Z,65.1
2019-05-07T06:33:14.391Z,65.4
2019-05-07T06:34:03.118Z,64.6
2019-05-07T06:34:56.088Z,64.6
2019-05-07T06:35:44.261Z,64.7
2019-05-07T06:36:32.956Z,64.7
2019-05-07T06:37:22.664Z,64.8
2019-05-07T06:38:09.670Z,64.6
2019-05-07T06:39:02.316Z,64.1
2019-05-07T06:39:50.466Z,64.3
2019-05-07T06:40:38.650Z,64.2
2019-05-07T06:41:26.820Z,64.0
2019-05-07T06:42:16.021Z,64.1
2019-05-07T06:43:08.586Z,64.2
2019-05-07T06:43:56.677Z,64.1
2019-05-07T06:44:44.843Z,64.2
2019-05-07T06:45:35.610Z,64.2
2019-05-07T06:46:23.179Z,64.3
2019-05-07T06:47:14.745Z,64.1
2019-05-07T06:48:03.090Z,64.1
2019-05-07T06:48:52.724Z,63.9
2019-05-07T06:49:39.233Z,64.0
2019-05-07T06:50:28.011Z,64.0
2019-05-07T06:51:22.080Z,64.1
2019-05-07T06:52:09.111Z,64.3
2019-05-07T06:52:57.306Z,63.8
2019-05-07T06:53:45.444Z,64.0
2019-05-07T06:54:34.563Z,64.0
2019-05-07T06:55:27.168Z,63.9
2019-05-07T06:56:15.322Z,63.5
2019-05-07T06:57:03.541Z,63.6
2019-05-07T06:57:53.040Z,63.2
2019-05-07T06:58:41.995Z,63.4
2019-05-07T06:59:34.736Z,63.1
2019-05-07T07:00:22.592Z,63.0
2019-05-07T07:01:11.965Z,62.7
2019-05-07T07:01:57.902Z,63.0
2019-05-07T07:02:46.639Z,62.3
2019-05-07T07:03:41.870Z,62.6
2019-05-07T07:04:27.781Z,62.0
2019-05-07T07:05:15.971Z,61.9
2019-05-07T07:06:04.159Z,61.7
2019-05-07T07:06:52.913Z,62.0
2019-05-07T07:07:45.838Z,61.8
2019-05-07T07:08:34.029Z,61.8
2019-05-07T07:09:22.451Z,61.3
2019-05-07T07:10:11.997Z,60.9
2019-05-07T07:10:59.159Z,60.8
2019-05-07T07:11:52.922Z,60.6
2019-05-07T07:12:41.887Z,60.8
2019-05-07T07:13:28.455Z,60.7
2019-05-07T07:14:16.619Z,60.6
2019-05-07T07:15:05.434Z,60.4
2019-05-07T07:15:58.356Z,59.9
2019-05-07T07:16:46.559Z,59.9
2019-05-07T07:17:34.727Z,59.9
2019-05-07T07:18:23.212Z,59.8
2019-05-07T07:18:48.407Z,59.8
2019-05-07T07:19:06.856Z,59.6
2019-05-07T07:20:01.873Z,59.4
2019-05-07T07:20:48.697Z,59.2
2019-05-07T07:21:36.219Z,59.7
2019-05-07T07:22:24.404Z,59.8
2019-05-07T07:23:13.115Z,59.3
2019-05-07T07:24:06.137Z,59.4
2019-05-07T07:24:54.341Z,59.6
2019-05-07T07:25:43.049Z,59.5
2019-05-07T07:26:32.721Z,59.2
2019-05-07T07:27:19.491Z,58.7
2019-05-07T07:28:12.526Z,58.7
2019-05-07T07:29:02.062Z,58.7
2019-05-07T07:29:48.798Z,58.4
2019-05-07T07:30:36.993Z,58.2
2019-05-07T07:31:26.261Z,58.2
2019-05-07T07:32:18.718Z,58.5
2019-05-07T07:33:06.912Z,58.8
2019-05-07T07:33:55.092Z,58.8
2019-05-07T07:34:43.285Z,58.5
2019-05-07T07:35:32.262Z,58.2
2019-05-07T07:36:25.009Z,58.4
2019-05-07T07:36:37.310Z,58.4
2019-05-07T07:37:10.877Z,58.2
2019-05-07T07:37:54.764Z,58.7
2019-05-07T07:38:42.953Z,58.5
2019-05-07T07:39:32.303Z,57.9
2019-05-07T07:40:24.732Z,58.0
2019-05-07T07:41:12.884Z,58.0
2019-05-07T07:42:02.920Z,57.5
2019-05-07T07:42:49.279Z,57.4
2019-05-07T07:43:38.142Z,57.0
2019-05-07T07:44:33.024Z,57.1
2019-05-07T07:45:19.220Z,57.1
2019-05-07T07:46:07.422Z,56.9
2019-05-07T07:46:55.615Z,56.8
2019-05-07T07:47:44.357Z,56.8
2019-05-07T07:48:37.351Z,56.7
2019-05-07T07:49:25.528Z,56.5
2019-05-07T07:50:13.718Z,56.2
2019-05-07T07:51:03.267Z,56.5
2019-05-07T07:51:52.577Z,56.6
2019-05-07T07:52:43.692Z,56.2
2019-05-07T07:53:35.189Z,55.8
2019-05-07T07:54:22.426Z,55.7
2019-05-07T07:55:08.250Z,55.3
2019-05-07T07:55:57.023Z,53.9
2019-05-07T07:56:53.874Z,53.5
2019-05-07T07:57:38.215Z,53.1
2019-05-07T07:58:26.403Z,53.6
2019-05-07T07:59:14.591Z,53.1
2019-05-07T08:00:03.577Z,52.5
2019-05-07T08:00:56.346Z,52.4
2019-05-07T08:01:44.573Z,52.2
2019-05-07T08:02:32.738Z,52.3
2019-05-07T08:03:22.575Z,52.6
2019-05-07T08:04:12.101Z,52.5
2019-05-07T08:05:02.727Z,52.3
2019-05-07T08:05:51.831Z,52.2
2019-05-07T08:06:39.128Z,52.8
2019-05-07T08:07:27.323Z,51.9
2019-05-07T08:08:16.092Z,51.7
2019-05-07T08:09:09.081Z,52.3
2019-05-07T08:09:57.281Z,52.1
2019-05-07T08:10:45.487Z,52.0
2019-05-07T08:11:33.675Z,51.9
2019-05-07T08:12:22.431Z,51.7
2019-05-07T08:13:15.469Z,51.8
2019-05-07T08:14:03.664Z,50.9
2019-05-07T08:14:52.080Z,50.4
2019-05-07T08:15:40.090Z,50.3
2019-05-07T08:16:28.843Z,49.9
2019-05-07T08:17:22.512Z,49.7
2019-05-07T08:18:11.951Z,49.7
2019-05-07T08:18:58.340Z,49.3
2019-05-07T08:19:46.452Z,49.4
2019-05-07T08:20:35.201Z,49.6
2019-05-07T08:21:28.223Z,49.6
2019-05-07T08:22:16.418Z,49.7
2019-05-07T08:23:04.638Z,49.8
2019-05-07T08:23:52.987Z,49.3
2019-05-07T08:24:42.606Z,48.3
2019-05-07T08:25:34.642Z,47.7
2019-05-07T08:26:22.839Z,48.2
2019-05-07T08:27:12.805Z,48.6
2019-05-07T08:27:59.243Z,48.3
2019-05-07T08:28:48.069Z,48.4
2019-05-07T08:29:43.019Z,48.1
2019-05-07T08:30:29.264Z,48.0
2019-05-07T08:31:17.472Z,48.4
2019-05-07T08:32:05.703Z,48.5
2019-05-07T08:32:54.439Z,48.4
2019-05-07T08:33:47.456Z,48.3
2019-05-07T08:34:35.679Z,48.0
2019-05-07T08:35:23.875Z,48.0
2019-05-07T08:36:14.709Z,48.0
2019-05-07T08:37:01.894Z,47.5
2019-05-07T08:37:53.906Z,47.4
2019-05-07T08:38:42.615Z,47.2
2019-05-07T08:39:32.358Z,46.6
2019-05-07T08:40:18.538Z,46.8
2019-05-07T08:41:07.550Z,46.5
2019-05-07T08:42:02.062Z,45.9
2019-05-07T08:42:48.550Z,45.6
2019-05-07T08:43:36.767Z,45.7
2019-05-07T08:44:24.982Z,46.1
2019-05-07T08:45:14.065Z,45.8
2019-05-07T08:46:06.785Z,45.5
2019-05-07T08:46:35.808Z,45.5
2019-05-07T08:46:47.089Z,46.0
2019-05-07T08:47:35.313Z,45.6
2019-05-07T08:48:23.536Z,45.9
2019-05-07T08:49:12.343Z,45.7
2019-05-07T08:50:05.317Z,45.6
2019-05-07T08:50:53.570Z,45.9
2019-05-07T08:51:42.606Z,45.8
2019-05-07T08:52:29.986Z,45.3
2019-05-07T08:53:18.851Z,45.7
2019-05-07T08:54:12.349Z,45.6
2019-05-07T08:55:02.085Z,45.1
2019-05-07T08:55:48.259Z,44.5
2019-05-07T08:56:36.464Z,44.2
2019-05-07T08:57:25.228Z,44.5
2019-05-07T08:58:18.287Z,44.4
2019-05-07T08:59:06.526Z,44.6
2019-05-07T09:00:00.448Z,44.8
2019-05-07T09:00:42.966Z,44.8
2019-05-07T09:01:32.553Z,43.8
2019-05-07T09:02:24.778Z,44.1
2019-05-07T09:03:21.845Z,43.9
2019-05-07T09:04:02.502Z,44.1
2019-05-07T09:04:49.489Z,44.4
2019-05-07T09:05:38.337Z,44.3
2019-05-07T09:06:22.091Z,44.3
2019-05-07T09:06:29.489Z,44.2
2019-05-07T09:07:17.700Z,44.0
2019-05-07T09:08:05.925Z,44.2
2019-05-07T09:08:54.209Z,44.2
2019-05-07T09:09:43.234Z,44.2
2019-05-07T09:10:35.991Z,44.2
2019-05-07T09:11:24.226Z,44.3
2019-05-07T09:12:12.629Z,44.1
2019-05-07T09:13:02.593Z,44.1
2019-05-07T09:13:49.498Z,44.0
2019-05-07T09:14:42.788Z,43.0
2019-05-07T09:15:32.018Z,42.6
2019-05-07T09:16:19.000Z,42.3
2019-05-07T09:17:07.279Z,42.2
2019-05-07T09:17:56.069Z,42.4
2019-05-07T09:18:49.073Z,43.0
2019-05-07T09:19:50.043Z,42.7
2019-05-07T09:20:25.595Z,43.2
2019-05-07T09:21:13.802Z,42.9
2019-05-07T09:22:02.746Z,42.9
2019-05-07T09:22:55.638Z,43.6
2019-05-07T09:23:43.906Z,43.8
2019-05-07T09:24:33.363Z,43.3
2019-05-07T09:25:22.289Z,42.8
2019-05-07T09:26:09.144Z,42.9
2019-05-07T09:27:02.764Z,42.5
2019-05-07T09:27:52.372Z,40.7
2019-05-07T09:28:38.678Z,40.4
2019-05-07T09:29:26.920Z,40.2
2019-05-07T09:30:15.782Z,40.2
2019-05-07T09:31:08.767Z,39.4
2019-05-07T09:31:57.020Z,39.4
2019-05-07T09:32:45.245Z,39.5
2019-05-07T09:33:33.485Z,39.2
2019-05-07T09:34:22.809Z,39.1
2019-05-07T09:35:15.342Z,39.0
2019-05-07T09:36:03.586Z,38.8
2019-05-07T09:36:51.958Z,38.8
2019-05-07T09:37:41.975Z,39.2
2019-05-07T09:38:28.870Z,39.2
2019-05-07T09:39:22.154Z,38.9
2019-05-07T09:40:12.448Z,38.1
2019-05-07T09:40:58.419Z,38.6
2019-05-07T09:41:46.656Z,37.8
2019-05-07T09:42:35.558Z,38.2
2019-05-07T09:43:28.515Z,37.9
2019-05-07T09:44:16.799Z,38.6
2019-05-07T09:45:05.012Z,38.5
2019-05-07T09:45:53.272Z,38.6
2019-05-07T09:46:43.043Z,38.8
2019-05-07T09:47:35.131Z,38.4
2019-05-07T09:48:23.380Z,37.7
2019-05-07T09:49:12.011Z,37.8
2019-05-07T09:50:04.560Z,37.5
2019-05-07T09:50:48.780Z,37.7
2019-05-07T09:51:42.697Z,37.8
2019-05-07T09:52:31.933Z,38.0
2019-05-07T09:53:18.281Z,38.2
2019-05-07T09:54:06.522Z,38.2
2019-05-07T09:54:55.416Z,38.5
2019-05-07T09:55:48.419Z,38.2
2019-05-07T09:56:36.635Z,38.1
2019-05-07T09:57:30.474Z,38.3
2019-05-07T09:58:13.136Z,38.3
2019-05-07T09:59:02.283Z,38.6
2019-05-07T09:59:54.977Z,38.5
2019-05-07T10:00:43.217Z,38.4
2019-05-07T10:01:32.093Z,38.4
2019-05-07T10:02:19.726Z,39.0
2019-05-07T10:03:08.819Z,39.1
2019-05-07T10:04:02.663Z,38.8
2019-05-07T10:04:49.827Z,38.0
2019-05-07T10:05:38.097Z,38.5
2019-05-07T10:06:26.326Z,38.8
2019-05-07T10:07:15.197Z,38.6
2019-05-07T10:08:08.170Z,38.6
2019-05-07T10:08:56.417Z,38.9
2019-05-07T10:09:44.663Z,38.6
2019-05-07T10:10:33.070Z,38.5
2019-05-07T10:11:22.549Z,38.6
2019-05-07T10:12:14.771Z,38.0
2019-05-07T10:13:03.021Z,38.1
2019-05-07T10:13:52.376Z,38.4
2019-05-07T10:14:41.940Z,37.9
2019-05-07T10:15:28.336Z,38.3
2019-05-07T10:16:21.413Z,36.7
2019-05-07T10:17:11.843Z,34.9
2019-05-07T10:17:57.899Z,35.5
2019-05-07T10:18:38.391Z,35.5
2019-05-07T10:18:42.565Z,35.4
2019-05-07T10:19:29.328Z,35.2
2019-05-07T10:20:22.825Z,35.0
2019-05-07T10:21:12.622Z,34.8
2019-05-07T10:21:58.326Z,34.8
2019-05-07T10:21:58.932Z,35.4
2019-05-07T10:22:47.184Z,35.0
2019-05-07T10:23:35.978Z,35.3
2019-05-07T10:24:29.043Z,35.0
2019-05-07T10:25:17.304Z,35.3
2019-05-07T10:26:05.590Z,35.1
2019-05-07T10:26:53.842Z,34.7
2019-05-07T10:27:42.645Z,35.5
2019-05-07T10:28:35.725Z,34.8
2019-05-07T10:29:23.988Z,34.4
2019-05-07T10:30:12.891Z,34.4
2019-05-07T10:31:00.988Z,34.6
2019-05-07T10:31:49.378Z,34.8
2019-05-07T10:32:42.463Z,35.0
2019-05-07T10:33:31.927Z,35.1
2019-05-07T10:34:18.955Z,35.0
2019-05-07T10:35:07.239Z,35.0
2019-05-07T10:35:56.069Z,34.7
2019-05-07T10:36:49.130Z,34.3
2019-05-07T10:36:52.334Z,34.3
2019-05-07T10:37:31.677Z,34.2
2019-05-07T10:38:18.101Z,34.7
2019-05-07T10:39:06.352Z,34.7
2019-05-07T10:39:55.183Z,34.7
2019-05-07T10:40:48.240Z,34.2
2019-05-07T10:41:36.540Z,33.8
2019-05-07T10:42:24.800Z,33.8
2019-05-07T10:43:13.067Z,34.0